createdAt,value
2016-08-14T00:00:44.712Z,74.73
2016-08-14T00:01:44.710Z,75.02
2016-08-14T00:02:44.710Z,74.83
2016-08-14T00:03:44.708Z,74.83
2016-08-14T00:04:44.704Z,75.02
2016-08-14T00:05:45.999Z,75.27
2016-08-14T00:06:45.337Z,74.79
2016-08-14T00:07:45.101Z,75.75
2016-08-14T00:08:44.801Z,75.18
2016-08-14T00:09:44.693Z,75.56
2016-08-14T00:10:44.690Z,75.56
2016-08-14T00:11:44.688Z,75.27
2016-08-14T00:12:44.695Z,75.18
2016-08-14T00:13:44.688Z,75.56
2016-08-14T00:14:44.697Z,75.85
2016-08-14T00:15:45.728Z,75.85
2016-08-14T00:16:44.684Z,75.95
2016-08-14T00:17:44.678Z,75.75
2016-08-14T00:18:45.688Z,75.37
2016-08-14T00:19:44.673Z,75.85
2016-08-14T00:20:44.672Z,75.85
2016-08-14T00:21:44.674Z,76.23
2016-08-14T00:22:44.671Z,76.14
2016-08-14T00:23:44.668Z,76.04
2016-08-14T00:24:44.664Z,76.14
2016-08-14T00:25:44.667Z,76.04
2016-08-14T00:26:44.659Z,76.04
2016-08-14T00:27:44.660Z,76.23
2016-08-14T00:28:44.663Z,76.52
2016-08-14T00:29:44.656Z,76.23
2016-08-14T00:30:44.655Z,76.32
2016-08-14T00:31:44.650Z,76.23
2016-08-14T00:32:44.651Z,76.32
2016-08-14T00:33:44.656Z,76.42
2016-08-14T00:34:44.650Z,76.23
2016-08-14T00:35:44.645Z,76.52
2016-08-14T00:36:44.647Z,76.32
2016-08-14T00:37:44.637Z,76.32
2016-08-14T00:38:44.639Z,76.42
2016-08-14T00:39:44.642Z,76.42
2016-08-14T00:40:44.633Z,76.62
2016-08-14T00:41:44.634Z,76.42
2016-08-14T00:42:44.639Z,76.81
2016-08-14T00:43:44.629Z,77.09
2016-08-14T00:44:59.547Z,76.81
2016-08-14T00:45:45.431Z,76.9
2016-08-14T00:46:59.941Z,76.9
2016-08-14T00:47:59.542Z,76.9
2016-08-14T00:48:44.622Z,77
2016-08-14T00:49:44.874Z,76.71
2016-08-14T00:50:44.767Z,76.62
2016-08-14T00:51:44.621Z,76.9
2016-08-14T00:52:44.616Z,76.9
2016-08-14T00:53:44.613Z,77
2016-08-14T00:54:45.315Z,77.38
2016-08-14T00:55:44.759Z,77.38
2016-08-14T00:56:44.904Z,77.38
2016-08-14T00:57:44.712Z,77.48
2016-08-14T00:58:44.707Z,77.48
2016-08-14T00:59:44.601Z,77.42
2016-08-14T01:00:44.595Z,77.38
2016-08-14T01:01:44.603Z,77.38
2016-08-14T01:02:44.591Z,77.38
2016-08-14T01:03:44.588Z,77.13
2016-08-14T01:04:44.588Z,77.23
2016-08-14T01:05:44.591Z,77.23
2016-08-14T01:06:44.587Z,77.51
2016-08-14T01:07:44.588Z,77.23
2016-08-14T01:08:44.588Z,77.51
2016-08-14T01:09:44.581Z,77.51
2016-08-14T01:10:44.578Z,76.84
2016-08-14T01:11:44.584Z,76.84
2016-08-14T01:12:44.585Z,77.04
2016-08-14T01:13:44.680Z,77.51
2016-08-14T01:14:44.569Z,77.23
2016-08-14T01:15:44.565Z,77.61
2016-08-14T01:16:44.573Z,76.75
2016-08-14T01:17:44.569Z,77.42
2016-08-14T01:18:44.560Z,76.84
2016-08-14T01:19:44.565Z,76.94
2016-08-14T01:20:44.558Z,77.51
2016-08-14T01:21:44.556Z,77.33
2016-08-14T01:22:44.557Z,76.94
2016-08-14T01:23:44.564Z,77.33
2016-08-14T01:24:46.074Z,77.23
2016-08-14T01:25:44.870Z,77.04
2016-08-14T01:26:45.245Z,77.33
2016-08-14T01:27:45.154Z,77.04
2016-08-14T01:28:44.548Z,77.13
2016-08-14T01:29:44.551Z,77.33
2016-08-14T01:30:44.548Z,77.13
2016-08-14T01:31:44.540Z,77.23
2016-08-14T01:32:45.487Z,77.13
2016-08-14T01:33:44.554Z,76.84
2016-08-14T01:34:44.534Z,77.04
2016-08-14T01:35:44.535Z,77.33
2016-08-14T01:36:44.531Z,77.61
2016-08-14T01:37:44.532Z,77.9
2016-08-14T01:38:45.223Z,77.9
2016-08-14T01:39:44.529Z,77.86
2016-08-14T01:40:44.531Z,77.67
2016-08-14T01:41:44.526Z,77.58
2016-08-14T01:42:44.521Z,77.76
2016-08-14T01:43:44.517Z,78.05
2016-08-14T01:44:44.521Z,77.67
2016-08-14T01:45:44.515Z,78.34
2016-08-14T01:46:44.518Z,78.34
2016-08-14T01:47:44.511Z,78.34
2016-08-14T01:48:44.512Z,78.44
2016-08-14T01:49:45.213Z,78.25
2016-08-14T01:50:44.503Z,78.53
2016-08-14T01:51:44.506Z,78.82
2016-08-14T01:52:44.501Z,78.53
2016-08-14T01:53:44.496Z,78.44
2016-08-14T01:54:44.496Z,78.63
2016-08-14T01:55:44.498Z,78.44
2016-08-14T01:56:44.496Z,78.53
2016-08-14T01:57:44.491Z,78.72
2016-08-14T01:58:44.494Z,79.07
2016-08-14T01:59:44.494Z,78.92
2016-08-14T02:00:44.489Z,78.92
2016-08-14T02:01:44.484Z,79.49
2016-08-14T02:02:44.734Z,79.21
2016-08-14T02:03:45.181Z,79.01
2016-08-14T02:04:45.332Z,79.59
2016-08-14T02:05:44.478Z,79.3
2016-08-14T02:06:44.481Z,79.21
2016-08-14T02:07:44.675Z,79.01
2016-08-14T02:08:44.485Z,79.3
2016-08-14T02:09:44.721Z,80.12
2016-08-14T02:10:44.470Z,79.83
2016-08-14T02:12:45.768Z,80.03
2016-08-14T02:13:44.857Z,80.03
2016-08-14T02:14:45.662Z,79.74
2016-08-14T02:15:44.460Z,80.41
2016-08-14T02:16:44.959Z,80.03
2016-08-14T02:17:44.448Z,79.93
2016-08-14T02:18:44.452Z,80.12
2016-08-14T02:19:44.447Z,80.12
2016-08-14T02:20:44.449Z,80.12
2016-08-14T02:21:44.446Z,79.93
2016-08-14T02:22:44.445Z,80.22
2016-08-14T02:23:44.449Z,80.7
2016-08-14T02:24:44.437Z,80.12
2016-08-14T02:25:44.436Z,80.51
2016-08-14T02:26:44.432Z,80.85
2016-08-14T02:27:44.435Z,81.04
2016-08-14T02:28:44.431Z,80.85
2016-08-14T02:29:44.430Z,81.43
2016-08-14T02:30:44.421Z,81.33
2016-08-14T02:31:44.425Z,80.94
2016-08-14T02:32:44.423Z,81.71
2016-08-14T02:33:44.418Z,81.04
2016-08-14T02:34:44.416Z,81.43
2016-08-14T02:35:44.416Z,81.43
2016-08-14T02:36:44.413Z,81.52
2016-08-14T02:37:44.411Z,81.43
2016-08-14T02:38:44.413Z,81.13
2016-08-14T02:39:44.402Z,81.33
2016-08-14T02:40:44.407Z,81.33
2016-08-14T02:42:45.482Z,81.9
2016-08-14T02:43:44.600Z,81.52
2016-08-14T02:44:45.553Z,81.52
2016-08-14T02:45:44.389Z,81.62
2016-08-14T02:46:45.146Z,81.62
2016-08-14T02:47:44.385Z,81.43
2016-08-14T02:48:44.381Z,81.43
2016-08-14T02:49:44.381Z,81.62
2016-08-14T02:50:44.378Z,81.62
2016-08-14T02:51:44.373Z,81.62
2016-08-14T02:52:44.374Z,81.52
2016-08-14T02:53:44.370Z,81.52
2016-08-14T02:54:45.228Z,81.62
2016-08-14T02:55:44.693Z,81.56
2016-08-14T02:56:44.362Z,81.75
2016-08-14T02:57:44.361Z,81.95
2016-08-14T02:58:44.361Z,81.95
2016-08-14T02:59:44.358Z,81.85
2016-08-14T03:00:45.061Z,81.75
2016-08-14T03:01:44.351Z,81.46
2016-08-14T03:02:44.356Z,81.37
2016-08-14T03:03:44.347Z,81.18
2016-08-14T03:04:44.351Z,81.46
2016-08-14T03:05:44.345Z,81.37
2016-08-14T03:06:44.342Z,81.46
2016-08-14T03:07:44.336Z,81.56
2016-08-14T03:08:44.334Z,81.56
2016-08-14T03:09:44.337Z,81.46
2016-08-14T03:10:44.332Z,81.08
2016-08-14T03:11:44.330Z,81.66
2016-08-14T03:12:44.328Z,80.89
2016-08-14T03:13:44.422Z,81.08
2016-08-14T03:14:44.323Z,81.08
2016-08-14T03:15:44.322Z,80.99
2016-08-14T03:16:44.315Z,81.95
2016-08-14T03:17:44.325Z,80.89
2016-08-14T03:18:44.314Z,81.85
2016-08-14T03:19:44.309Z,81.37
2016-08-14T03:20:44.304Z,81.27
2016-08-14T03:21:44.856Z,81.18
2016-08-14T03:22:44.404Z,81.18
2016-08-14T03:23:44.552Z,81.37
2016-08-14T03:24:44.295Z,81.56
2016-08-14T03:25:44.294Z,81.27
2016-08-14T03:26:44.696Z,81.95
2016-08-14T03:27:44.296Z,81.18
2016-08-14T03:28:44.297Z,81.27
2016-08-14T03:29:44.286Z,80.89
2016-08-14T03:30:44.742Z,81.56
2016-08-14T03:31:44.434Z,81.37
2016-08-14T03:32:44.283Z,81.56
2016-08-14T03:33:44.279Z,81.18
2016-08-14T03:34:44.278Z,81.18
2016-08-14T03:35:44.272Z,81.56
2016-08-14T03:36:44.270Z,80.99
2016-08-14T03:37:44.266Z,81.08
2016-08-14T03:38:44.271Z,81.56
2016-08-14T03:39:44.262Z,80.99
2016-08-14T03:40:44.265Z,81.46
2016-08-14T03:41:44.269Z,80.99
2016-08-14T03:42:44.260Z,81.27
2016-08-14T03:43:44.262Z,81.37
2016-08-14T03:44:44.262Z,81.56
2016-08-14T03:45:44.259Z,81.18
2016-08-14T03:46:44.248Z,81.08
2016-08-14T03:47:44.250Z,81.66
2016-08-14T03:48:44.242Z,81.56
2016-08-14T03:49:44.240Z,81.46
2016-08-14T03:50:44.246Z,81.37
2016-08-14T03:51:44.236Z,81.75
2016-08-14T03:52:44.238Z,81.37
2016-08-14T03:53:44.235Z,81.56
2016-08-14T03:54:44.230Z,81.75
2016-08-14T03:55:44.229Z,81.56
2016-08-14T03:56:44.225Z,81.37
2016-08-14T03:57:44.226Z,81.75
2016-08-14T03:58:44.228Z,81.66
2016-08-14T03:59:44.226Z,81.37
2016-08-14T04:00:44.919Z,81.46
2016-08-14T04:01:44.218Z,81.56
2016-08-14T04:02:45.438Z,81.37
2016-08-14T04:03:44.220Z,81.56
2016-08-14T04:04:44.206Z,81.56
2016-08-14T04:05:44.210Z,81.51
2016-08-14T04:06:44.211Z,81.02
2016-08-14T04:07:44.207Z,80.89
2016-08-14T04:08:44.199Z,81.46
2016-08-14T04:09:45.683Z,81.7
2016-08-14T04:10:45.606Z,81.02
2016-08-14T04:11:44.194Z,81.12
2016-08-14T04:12:44.195Z,81.79
2016-08-14T04:13:44.286Z,81.41
2016-08-14T04:14:44.184Z,81.7
2016-08-14T04:15:44.189Z,81.51
2016-08-14T04:16:44.300Z,81.22
2016-08-14T04:17:44.177Z,80.83
2016-08-14T04:18:44.184Z,81.51
2016-08-14T04:19:44.178Z,81.51
2016-08-14T04:20:44.192Z,80.93
2016-08-14T04:21:44.172Z,81.31
2016-08-14T04:22:44.173Z,81.41
2016-08-14T04:23:44.177Z,81.51
2016-08-14T04:24:44.170Z,81.51
2016-08-14T04:25:44.166Z,81.12
2016-08-14T04:26:44.162Z,81.12
2016-08-14T04:27:44.160Z,81.02
2016-08-14T04:28:44.152Z,81.22
2016-08-14T04:29:44.154Z,80.93
2016-08-14T04:30:44.151Z,80.93
2016-08-14T04:31:44.150Z,80.74
2016-08-14T04:32:44.147Z,80.93
2016-08-14T04:33:44.146Z,81.31
2016-08-14T04:34:44.154Z,81.12
2016-08-14T04:35:44.140Z,81.26
2016-08-14T04:36:44.145Z,81.41
2016-08-14T04:37:44.143Z,81.45
2016-08-14T04:38:44.133Z,81.26
2016-08-14T04:39:59.058Z,80.87
2016-08-14T04:41:44.479Z,80.87
2016-08-14T04:42:59.045Z,81.07
2016-08-14T04:43:44.130Z,80.87
2016-08-14T04:44:44.776Z,80.11
2016-08-14T04:45:44.124Z,80.01
2016-08-14T04:46:44.121Z,80.2
2016-08-14T04:47:44.122Z,80.3
2016-08-14T04:48:44.123Z,80.2
2016-08-14T04:49:44.114Z,80.01
2016-08-14T04:50:44.219Z,80.11
2016-08-14T04:51:44.916Z,79.91
2016-08-14T04:52:44.111Z,80.01
2016-08-14T04:53:44.111Z,79.91
2016-08-14T04:54:44.110Z,79.86
2016-08-14T04:55:44.113Z,79.57
2016-08-14T04:56:44.110Z,79.38
2016-08-14T04:57:44.104Z,79.28
2016-08-14T04:58:44.100Z,79.19
2016-08-14T04:59:44.104Z,79.09
2016-08-14T05:00:44.102Z,78.9
2016-08-14T05:01:44.111Z,78.8
2016-08-14T05:02:44.093Z,78.61
2016-08-14T05:03:44.091Z,78.52
2016-08-14T05:04:44.088Z,78.61
2016-08-14T05:05:44.092Z,78.99
2016-08-14T05:06:44.795Z,78.42
2016-08-14T05:07:44.084Z,78.75
2016-08-14T05:08:44.084Z,78.27
2016-08-14T05:09:44.090Z,78.17
2016-08-14T05:10:44.087Z,77.98
2016-08-14T05:11:44.077Z,77.78
2016-08-14T05:12:44.082Z,77.88
2016-08-14T05:13:44.080Z,77.69
2016-08-14T05:14:44.075Z,77.98
2016-08-14T05:15:44.078Z,77.88
2016-08-14T05:16:44.079Z,77.69
2016-08-14T05:17:44.083Z,77.25
2016-08-14T05:18:44.076Z,77.44
2016-08-14T05:19:44.081Z,77.06
2016-08-14T05:20:44.070Z,76.77
2016-08-14T05:21:44.351Z,76.57
2016-08-14T05:22:44.885Z,76.57
2016-08-14T05:23:44.074Z,76.42
2016-08-14T05:24:44.070Z,76.04
2016-08-14T05:25:44.317Z,75.75
2016-08-14T05:26:44.073Z,75.94
2016-08-14T05:27:46.063Z,75.46
2016-08-14T05:28:44.845Z,75.56
2016-08-14T05:29:44.150Z,75.4
2016-08-14T05:30:44.066Z,75.11
2016-08-14T05:31:44.211Z,74.63
2016-08-14T05:32:44.523Z,75.11
2016-08-14T05:33:44.061Z,74.92
2016-08-14T05:34:44.066Z,75.11
2016-08-14T05:35:44.067Z,74.25
2016-08-14T05:36:44.060Z,74.63
2016-08-14T05:37:44.064Z,74.54
2016-08-14T05:38:44.068Z,74.57
2016-08-14T05:39:44.068Z,73.9
2016-08-14T05:40:44.066Z,74.19
2016-08-14T05:41:44.066Z,74.38
2016-08-14T05:42:44.063Z,74.19
2016-08-14T05:43:44.066Z,73.9
2016-08-14T05:44:44.065Z,73.71
2016-08-14T05:45:44.066Z,73.99
2016-08-14T05:46:44.060Z,73.61
2016-08-14T05:47:44.061Z,72.94
2016-08-14T05:48:44.063Z,73.42
2016-08-14T05:49:44.080Z,72.59
2016-08-14T05:50:44.064Z,72.59
2016-08-14T05:51:44.066Z,72.59
2016-08-14T05:52:44.063Z,72.11
2016-08-14T05:53:44.071Z,71.81
2016-08-14T05:54:44.072Z,71.81
2016-08-14T05:55:44.071Z,71.43
2016-08-14T05:56:44.072Z,71.14
2016-08-14T05:57:44.070Z,70.7
2016-08-14T05:58:44.172Z,71.08
2016-08-14T05:59:45.130Z,70.6
2016-08-14T06:00:44.078Z,70.25
2016-08-14T06:01:44.384Z,69.42
2016-08-14T06:02:44.077Z,68.45
2016-08-14T06:03:44.083Z,68.01
2016-08-14T06:04:44.088Z,67.65
2016-08-14T06:05:44.091Z,67.07
2016-08-14T06:06:44.191Z,66.2
2016-08-14T06:07:44.794Z,66.11
2016-08-14T06:08:44.094Z,65.66
2016-08-14T06:09:44.106Z,65.08
2016-08-14T06:10:44.249Z,64.98
2016-08-14T06:11:44.111Z,64.4
2016-08-14T06:12:44.115Z,63.85
2016-08-14T06:13:44.109Z,63.47
2016-08-14T06:14:44.122Z,63.21
2016-08-14T06:15:44.126Z,62.18
2016-08-14T06:16:44.129Z,60.37
2016-08-14T06:17:44.133Z,60.47
2016-08-14T06:18:44.136Z,59.53
2016-08-14T06:19:44.145Z,59.07
2016-08-14T06:20:44.146Z,58.69
2016-08-14T06:21:44.158Z,58.04
2016-08-14T06:22:44.163Z,57.29
2016-08-14T06:23:44.167Z,56.9
2016-08-14T06:24:44.172Z,55.38
2016-08-14T06:25:44.191Z,54.11
2016-08-14T06:26:44.889Z,53.34
2016-08-14T06:27:44.195Z,53.89
2016-08-14T06:28:44.204Z,54.77
2016-08-14T06:29:44.217Z,54.67
2016-08-14T06:30:44.217Z,53.7
2016-08-14T06:31:44.219Z,53.7
2016-08-14T06:32:44.236Z,54.06
2016-08-14T06:33:44.236Z,54.16
2016-08-14T06:34:44.240Z,53.67
2016-08-14T06:35:44.250Z,54.52
2016-08-14T06:36:44.638Z,54.43
2016-08-14T06:37:45.833Z,54.62
2016-08-14T06:38:45.227Z,54.43
2016-08-14T06:39:44.557Z,54.52
2016-08-14T06:40:44.284Z,53.94
2016-08-14T06:41:44.291Z,53.45
2016-08-14T06:42:44.296Z,53.19
2016-08-14T06:43:44.332Z,52.73
2016-08-14T06:44:44.314Z,52.34
2016-08-14T06:45:44.318Z,51.59
2016-08-14T06:46:45.647Z,50.72
2016-08-14T06:47:44.333Z,49.56
2016-08-14T06:48:44.343Z,49.56
2016-08-14T06:49:44.953Z,49.73
2016-08-14T06:50:44.365Z,49.63
2016-08-14T06:51:44.362Z,49.95
2016-08-14T06:52:44.373Z,49.46
2016-08-14T06:53:44.382Z,49.1
2016-08-14T06:54:44.389Z,48.9
2016-08-14T06:55:44.403Z,48.64
2016-08-14T06:56:44.409Z,47.88
2016-08-14T06:57:44.411Z,47.01
2016-08-14T06:58:44.424Z,46.64
2016-08-14T06:59:44.434Z,46.06
2016-08-14T07:00:44.445Z,46.33
2016-08-14T07:01:44.453Z,45.67
2016-08-14T07:02:44.464Z,45.28
2016-08-14T07:03:44.469Z,44.89
2016-08-14T07:04:44.483Z,44.79
2016-08-14T07:05:45.184Z,44.99
2016-08-14T07:06:44.500Z,43.24
2016-08-14T07:07:44.507Z,43.05
2016-08-14T07:08:44.514Z,43.07
2016-08-14T07:09:44.528Z,42.6
2016-08-14T07:10:44.543Z,42.72
2016-08-14T07:11:44.552Z,42.55
2016-08-14T07:12:44.568Z,41.71
2016-08-14T07:13:44.578Z,40.66
2016-08-14T07:14:44.581Z,40.39
2016-08-14T07:15:45.842Z,39.33
2016-08-14T07:16:44.603Z,38.26
2016-08-14T07:17:44.817Z,37.85
2016-08-14T07:18:44.634Z,37.73
2016-08-14T07:19:44.639Z,38.1
2016-08-14T07:20:44.647Z,38.96
2016-08-14T07:21:44.660Z,39.14
2016-08-14T07:22:44.667Z,38.65
2016-08-14T07:23:44.674Z,38.07
2016-08-14T07:24:59.607Z,37.76
2016-08-14T07:25:45.852Z,37.76
2016-08-14T07:26:44.718Z,37.85
2016-08-14T07:27:44.723Z,37.56
2016-08-14T07:28:44.731Z,37.74
2016-08-14T07:29:44.745Z,37.95
2016-08-14T07:30:44.755Z,37.46
2016-08-14T07:31:44.762Z,37.48
2016-08-14T07:32:44.775Z,36.41
2016-08-14T07:33:44.794Z,36.63
2016-08-14T07:34:44.807Z,36.04
2016-08-14T07:35:44.815Z,36.22
2016-08-14T07:36:44.830Z,36.22
2016-08-14T07:37:44.840Z,35.34
2016-08-14T07:38:44.846Z,35.05
2016-08-14T07:39:44.864Z,35.33
2016-08-14T07:40:44.874Z,35.61
2016-08-14T07:41:44.891Z,35.05
2016-08-14T07:42:44.894Z,34.97
2016-08-14T07:43:44.910Z,35.08
2016-08-14T07:44:44.924Z,34.42
2016-08-14T07:45:44.941Z,33.34
2016-08-14T07:46:44.959Z,34.44
2016-08-14T07:47:44.965Z,34.24
2016-08-14T07:48:44.974Z,34.44
2016-08-14T07:49:44.988Z,33.95
2016-08-14T07:50:45.002Z,33.46
2016-08-14T07:51:45.017Z,32.79
2016-08-14T07:52:45.032Z,33.18
2016-08-14T07:53:45.050Z,33.4
2016-08-14T07:54:45.061Z,33.12
2016-08-14T07:55:46.855Z,33.31
2016-08-14T07:56:45.080Z,32.35
2016-08-14T07:57:45.131Z,31.59
2016-08-14T07:58:45.116Z,31.1
2016-08-14T07:59:45.335Z,30.41
2016-08-14T08:00:45.479Z,30.33
2016-08-14T08:01:45.155Z,29.84
2016-08-14T08:02:45.174Z,29.83
2016-08-14T08:04:45.219Z,29.34
2016-08-14T08:05:45.222Z,29.63
2016-08-14T08:06:45.232Z,30.49
2016-08-14T08:07:46.318Z,30.49
2016-08-14T08:08:45.259Z,30.51
2016-08-14T08:09:45.612Z,30.43
2016-08-14T08:10:45.416Z,29.74
2016-08-14T08:11:45.306Z,29.64
2016-08-14T08:12:45.323Z,28.88
2016-08-14T08:13:45.337Z,28.88
2016-08-14T08:14:45.351Z,28.67
2016-08-14T08:15:45.367Z,29.35
2016-08-14T08:16:45.379Z,28.96
2016-08-14T08:17:45.396Z,28.06
2016-08-14T08:18:45.406Z,29.11
2016-08-14T08:19:45.424Z,29.57
2016-08-14T08:20:45.434Z,30.24
2016-08-14T08:21:45.447Z,30.13
2016-08-14T08:22:45.463Z,30.99
2016-08-14T08:23:45.472Z,31.57
2016-08-14T08:24:45.491Z,31.27
2016-08-14T08:25:45.496Z,31.54
2016-08-14T08:26:45.514Z,32.03
2016-08-14T08:27:45.521Z,32.11
2016-08-14T08:28:45.528Z,32.87
2016-08-14T08:29:45.557Z,33.26
2016-08-14T08:30:45.553Z,33.44
2016-08-14T08:31:45.563Z,33.64
2016-08-14T08:32:45.572Z,34.12
2016-08-14T08:33:46.896Z,34.03
2016-08-14T08:34:45.592Z,33.44
2016-08-14T08:35:46.106Z,34.12
2016-08-14T08:36:46.116Z,34.24
2016-08-14T08:37:45.628Z,34.05
2016-08-14T08:38:45.631Z,34.43
2016-08-14T08:39:45.643Z,34.32
2016-08-14T08:40:45.658Z,34.88
2016-08-14T08:41:45.665Z,35.17
2016-08-14T08:42:46.178Z,35.45
2016-08-14T08:43:46.585Z,35.64
2016-08-14T08:44:45.686Z,36.11
2016-08-14T08:45:45.900Z,36.48
2016-08-14T08:46:45.712Z,36.76
2016-08-14T08:47:45.718Z,37.23
2016-08-14T08:48:45.727Z,37.81
2016-08-14T08:49:45.733Z,37.81
2016-08-14T08:50:45.741Z,38.17
2016-08-14T08:51:45.755Z,38.27
2016-08-14T08:52:45.758Z,38.64
2016-08-14T08:53:45.762Z,38.64
2016-08-14T08:54:45.771Z,39.01
2016-08-14T08:55:45.779Z,39.49
2016-08-14T08:56:45.793Z,39.67
2016-08-14T08:57:45.793Z,40.15
2016-08-14T08:58:45.799Z,40.53
2016-08-14T08:59:45.806Z,40.44
2016-08-14T09:00:45.814Z,41.11
2016-08-14T09:01:45.821Z,41
2016-08-14T09:02:45.830Z,41.09
2016-08-14T09:03:45.837Z,41.19
2016-08-14T09:04:45.838Z,41.09
2016-08-14T09:05:45.848Z,41.11
2016-08-14T09:06:45.850Z,41.21
2016-08-14T09:07:45.855Z,41.11
2016-08-14T09:08:45.869Z,41.21
2016-08-14T09:09:45.867Z,40.92
2016-08-14T09:10:45.876Z,41.11
2016-08-14T09:11:45.881Z,40.83
2016-08-14T09:13:46.473Z,40.65
2016-08-14T09:14:45.900Z,40.75
2016-08-14T09:15:46.033Z,40.19
2016-08-14T09:16:46.240Z,40.17
2016-08-14T09:17:45.922Z,40.17
2016-08-14T09:18:45.923Z,40.56
2016-08-14T09:19:45.929Z,40.34
2016-08-14T09:20:45.934Z,40.83
2016-08-14T09:21:47.509Z,41.31
2016-08-14T09:22:45.944Z,41.02
2016-08-14T09:23:47.572Z,41.41
2016-08-14T09:24:45.959Z,41.09
2016-08-14T09:25:45.973Z,41.48
2016-08-14T09:26:45.974Z,41.39
2016-08-14T09:27:46.197Z,41.39
2016-08-14T09:28:46.327Z,41.39
2016-08-14T09:29:45.995Z,41.29
2016-08-14T09:30:45.995Z,41.39
2016-08-14T09:31:45.997Z,41.41
2016-08-14T09:32:46.012Z,41.39
2016-08-14T09:33:46.018Z,41.29
2016-08-14T09:34:46.014Z,41.39
2016-08-14T09:35:46.022Z,41.39
2016-08-14T09:36:46.025Z,41.41
2016-08-14T09:37:46.034Z,41.31
2016-08-14T09:38:46.039Z,41.33
2016-08-14T09:39:46.042Z,41.04
2016-08-14T09:40:46.048Z,40.67
2016-08-14T09:41:46.058Z,40.5
2016-08-14T09:42:46.060Z,40.21
2016-08-14T09:43:46.074Z,40.33
2016-08-14T09:44:46.088Z,40.03
2016-08-14T09:45:46.093Z,40.13
2016-08-14T09:46:46.087Z,40.05
2016-08-14T09:47:46.088Z,38.99
2016-08-14T09:48:46.098Z,38.6
2016-08-14T09:49:46.098Z,38.6
2016-08-14T09:50:46.109Z,38.5
2016-08-14T09:52:46.425Z,38.31
2016-08-14T09:53:46.580Z,38.21
2016-08-14T09:55:46.841Z,38.13
2016-08-14T09:56:46.151Z,37.84
2016-08-14T09:57:46.149Z,37.84
2016-08-14T09:58:46.157Z,37.65
2016-08-14T09:59:46.164Z,38.04
2016-08-14T10:00:46.172Z,37.92
2016-08-14T10:01:46.775Z,37.82
2016-08-14T10:02:46.192Z,38
2016-08-14T10:05:01.116Z,38.37
2016-08-14T10:05:47.550Z,38.68
2016-08-14T10:06:46.208Z,38.19
2016-08-14T10:07:46.317Z,38.48
2016-08-14T10:08:46.219Z,38.29
2016-08-14T10:09:46.228Z,38.39
2016-08-14T10:10:46.236Z,38.21
2016-08-14T10:11:46.319Z,38.4
2016-08-14T10:12:46.242Z,37.84
2016-08-14T10:13:46.253Z,37.94
2016-08-14T10:14:46.262Z,37.65
2016-08-14T10:15:46.266Z,37.74
2016-08-14T10:16:46.271Z,37.55
2016-08-14T10:17:46.275Z,37.55
2016-08-14T10:18:46.286Z,37.84
2016-08-14T10:19:46.297Z,37.57
2016-08-14T10:20:46.296Z,37.66
2016-08-14T10:21:46.301Z,37.57
2016-08-14T10:22:46.309Z,37.47
2016-08-14T10:23:46.323Z,37.37
2016-08-14T10:24:46.329Z,37.18
2016-08-14T10:25:46.329Z,37.47
2016-08-14T10:26:46.338Z,36.89
2016-08-14T10:27:46.340Z,36.81
2016-08-14T10:28:46.354Z,36.13
2016-08-14T10:29:46.360Z,36.22
2016-08-14T10:30:46.362Z,36.81
2016-08-14T10:31:46.368Z,36.61
2016-08-14T10:32:46.375Z,36.44
2016-08-14T10:33:47.981Z,36.04
2016-08-14T10:34:46.395Z,36.32
2016-08-14T10:35:46.403Z,36.05
2016-08-14T10:36:46.411Z,36.05
2016-08-14T10:37:46.663Z,35.74
2016-08-14T10:38:46.423Z,35.94
2016-08-14T10:39:46.440Z,35.94
2016-08-14T10:41:47.937Z,36.04
2016-08-14T10:42:46.454Z,36.04
2016-08-14T10:43:47.495Z,35.94
2016-08-14T10:44:47.334Z,35.94
2016-08-14T10:45:46.478Z,36.05
2016-08-14T10:46:46.485Z,35.76
2016-08-14T10:47:46.488Z,35.76
2016-08-14T10:48:46.498Z,35.96
2016-08-14T10:49:46.511Z,36.05
2016-08-14T10:50:46.508Z,35.39
2016-08-14T10:51:46.516Z,35.68
2016-08-14T10:52:46.528Z,35.1
2016-08-14T10:53:46.530Z,35.11
2016-08-14T10:54:46.538Z,34.82
2016-08-14T10:55:46.547Z,35
2016-08-14T10:56:46.553Z,35
2016-08-14T10:57:46.565Z,35
2016-08-14T10:58:46.574Z,35.19
2016-08-14T10:59:46.577Z,35.19
2016-08-14T11:00:46.587Z,35.11
2016-08-14T11:01:46.596Z,34.63
2016-08-14T11:02:46.604Z,35.02
2016-08-14T11:03:46.610Z,34.82
2016-08-14T11:04:46.625Z,34.24
2016-08-14T11:05:46.628Z,34.82
2016-08-14T11:06:46.635Z,34.8
2016-08-14T11:07:46.645Z,34.72
2016-08-14T11:08:46.656Z,34.92
2016-08-14T11:09:46.655Z,35
2016-08-14T11:12:46.699Z,34.72
2016-08-14T11:13:46.891Z,34.33
2016-08-14T11:14:46.695Z,34.32
2016-08-14T11:15:46.708Z,34.61
2016-08-14T11:16:46.707Z,34.7
2016-08-14T11:17:46.715Z,34.7
2016-08-14T11:18:46.731Z,34.8
2016-08-14T11:19:47.035Z,34.7
2016-08-14T11:20:46.843Z,34.8
2016-08-14T11:21:46.747Z,34.8
2016-08-14T11:22:47.062Z,34.9
2016-08-14T11:23:47.128Z,34.8
2016-08-14T11:24:46.772Z,34.8
2016-08-14T11:25:46.786Z,34.7
2016-08-14T11:26:46.792Z,34.82
2016-08-14T11:27:46.798Z,34.7
2016-08-14T11:28:46.803Z,34.7
2016-08-14T11:29:46.810Z,34.9
2016-08-14T11:30:46.822Z,34.8
2016-08-14T11:31:46.826Z,35.1
2016-08-14T11:32:46.838Z,35.29
2016-08-14T11:33:46.842Z,35.19
2016-08-14T11:34:46.850Z,34.72
2016-08-14T11:35:46.853Z,34.92
2016-08-14T11:36:46.863Z,34.72
2016-08-14T11:37:46.877Z,34.84
2016-08-14T11:38:47.576Z,34.55
2016-08-14T11:39:46.883Z,34.53
2016-08-14T11:40:46.890Z,33.46
2016-08-14T11:41:46.907Z,34.24
2016-08-14T11:42:46.911Z,34.61
2016-08-14T11:43:46.918Z,34.9
2016-08-14T11:44:46.922Z,35
2016-08-14T11:45:46.931Z,34.8
2016-08-14T11:46:46.939Z,34.61
2016-08-14T11:47:46.946Z,34.7
2016-08-14T11:48:46.954Z,34.7
2016-08-14T11:49:49.074Z,35.19
2016-08-14T11:50:49.068Z,35.19
2016-08-14T11:51:47.471Z,35.29
2016-08-14T11:52:46.981Z,34.7
2016-08-14T11:53:46.993Z,34.9
2016-08-14T11:54:46.998Z,34.32
2016-08-14T11:55:47.002Z,34.01
2016-08-14T11:56:47.221Z,34.79
2016-08-14T11:57:47.025Z,34.75
2016-08-14T11:58:48.544Z,34.85
2016-08-14T11:59:47.632Z,35.53
2016-08-14T12:00:47.037Z,35.92
2016-08-14T12:01:47.056Z,35.72
2016-08-14T12:02:47.055Z,35.72
2016-08-14T12:03:47.067Z,36.13
2016-08-14T12:04:47.488Z,36.04
2016-08-14T12:05:47.079Z,35.43
2016-08-14T12:06:47.089Z,36.02
2016-08-14T12:07:47.096Z,36
2016-08-14T12:08:47.099Z,36.29
2016-08-14T12:09:47.107Z,36.29
2016-08-14T12:10:47.115Z,36.77
2016-08-14T12:11:47.121Z,36.58
2016-08-14T12:12:47.126Z,36.77
2016-08-14T12:13:47.133Z,36.99
2016-08-14T12:14:47.189Z,37.28
2016-08-14T12:15:47.144Z,37.37
2016-08-14T12:16:47.156Z,37.28
2016-08-14T12:17:47.425Z,37.28
2016-08-14T12:18:47.164Z,37.47
2016-08-14T12:19:47.170Z,37.37
2016-08-14T12:20:47.183Z,37.37
2016-08-14T12:21:47.186Z,37.28
2016-08-14T12:22:47.197Z,37.26
2016-08-14T12:23:47.198Z,37.65
2016-08-14T12:24:47.205Z,37.35
2016-08-14T12:25:47.226Z,37.53
2016-08-14T12:26:47.219Z,37.63
2016-08-14T12:27:47.227Z,37.92
2016-08-14T12:28:48.231Z,38.19
2016-08-14T12:29:47.843Z,38.19
2016-08-14T12:30:47.243Z,38.39
2016-08-14T12:31:47.249Z,38.87
2016-08-14T12:32:47.259Z,38.96
2016-08-14T12:33:47.260Z,38.39
2016-08-14T12:34:47.469Z,38.4
2016-08-14T12:35:47.273Z,38.5
2016-08-14T12:36:47.282Z,38.4
2016-08-14T12:38:02.203Z,38.4
2016-08-14T12:38:47.292Z,38.31
2016-08-14T12:39:47.295Z,38.02
2016-08-14T12:40:47.307Z,38.23
2016-08-14T12:41:47.311Z,37.94
2016-08-14T12:42:47.317Z,37.84
2016-08-14T12:43:47.324Z,37.65
2016-08-14T12:44:47.328Z,38.23
2016-08-14T12:45:47.334Z,38.13
2016-08-14T12:46:47.339Z,38.13
2016-08-14T12:47:47.350Z,37.94
2016-08-14T12:48:47.359Z,37.94
2016-08-14T12:49:47.363Z,37.65
2016-08-14T12:50:47.373Z,37.55
2016-08-14T12:51:47.381Z,37.74
2016-08-14T12:52:47.378Z,37.65
2016-08-14T12:53:47.392Z,37.84
2016-08-14T12:54:47.395Z,38.04
2016-08-14T12:55:47.396Z,38.13
2016-08-14T12:56:47.404Z,37.94
2016-08-14T12:57:47.410Z,37.94
2016-08-14T12:58:47.420Z,37.65
2016-08-14T12:59:47.423Z,37.74
2016-08-14T13:00:47.433Z,37.84
2016-08-14T13:01:47.434Z,37.65
2016-08-14T13:02:47.441Z,37.16
2016-08-14T13:03:47.452Z,37.37
2016-08-14T13:04:47.458Z,37.28
2016-08-14T13:05:47.467Z,37.28
2016-08-14T13:06:47.481Z,36.81